Map

Track Data

SID SEASON NUMBER BASIN SUBBASIN NAME ISO_TIME NATURE LAT LON WMO_WIND WMO_PRES WMO_AGENCY TRACK_TYPE DIST2LAND LANDFALL IFLAG USA_AGENCY USA_ATCF_ID USA_LAT USA_LON USA_RECORD USA_STATUS USA_WIND USA_PRES USA_SSHS USA_R34_NE USA_R34_SE USA_R34_SW USA_R34_NW USA_R50_NE USA_R50_SE USA_R50_SW USA_R50_NW USA_R64_NE USA_R64_SE USA_R64_SW USA_R64_NW USA_POCI USA_ROCI USA_RMW USA_EYE TOKYO_LAT TOKYO_LON TOKYO_GRADE TOKYO_WIND TOKYO_PRES TOKYO_R50_DIR TOKYO_R50_LONG TOKYO_R50_SHORT TOKYO_R30_DIR TOKYO_R30_LONG TOKYO_R30_SHORT TOKYO_LAND CMA_LAT CMA_LON CMA_CAT CMA_WIND CMA_PRES HKO_LAT HKO_LON HKO_CAT HKO_WIND HKO_PRES NEWDELHI_LAT NEWDELHI_LON NEWDELHI_GRADE NEWDELHI_WIND NEWDELHI_PRES NEWDELHI_CI NEWDELHI_DP NEWDELHI_POCI REUNION_LAT REUNION_LON REUNION_TYPE REUNION_WIND REUNION_PRES REUNION_TNUM REUNION_CI REUNION_RMW REUNION_R34_NE REUNION_R34_SE REUNION_R34_SW REUNION_R34_NW REUNION_R50_NE REUNION_R50_SE REUNION_R50_SW REUNION_R50_NW REUNION_R64_NE REUNION_R64_SE REUNION_R64_SW REUNION_R64_NW BOM_LAT BOM_LON BOM_TYPE BOM_WIND BOM_PRES BOM_TNUM BOM_CI BOM_RMW BOM_R34_NE BOM_R34_SE BOM_R34_SW BOM_R34_NW BOM_R50_NE BOM_R50_SE BOM_R50_SW BOM_R50_NW BOM_R64_NE BOM_R64_SE BOM_R64_SW BOM_R64_NW BOM_ROCI BOM_POCI BOM_EYE BOM_POS_METHOD BOM_PRES_METHOD NADI_LAT NADI_LON NADI_CAT NADI_WIND NADI_PRES WELLINGTON_LAT WELLINGTON_LON WELLINGTON_WIND WELLINGTON_PRES DS824_LAT DS824_LON DS824_STAGE DS824_WIND DS824_PRES TD9636_LAT TD9636_LON TD9636_STAGE TD9636_WIND TD9636_PRES TD9635_LAT TD9635_LON TD9635_WIND TD9635_PRES TD9635_ROCI NEUMANN_LAT NEUMANN_LON NEUMANN_CLASS NEUMANN_WIND NEUMANN_PRES MLC_LAT MLC_LON MLC_CLASS MLC_WIND MLC_PRES USA_GUST BOM_GUST BOM_GUST_PER REUNION_GUST REUNION_GUST_PER USA_SEAHGT USA_SEARAD_NE USA_SEARAD_SE USA_SEARAD_SW USA_SEARAD_NW STORM_SPEED STORM_DIR
1977146N12253 1977 40 EP MM AVA 1977-05-25 15:00:00 NR 11.8000 -107.000 main 818 818 __________O___ -1 11.8000 -107.000 1 30 11 268
1977146N12253 1977 40 EP MM AVA 1977-05-25 18:00:00 NR 11.7784 -107.541 main 844 844 __________P___ -1 11.7784 -107.541 1 30 10 267
1977146N12253 1977 40 EP MM AVA 1977-05-25 21:00:00 NR 11.7477 -108.051 main 888 888 __________P___ -1 11.7477 -108.051 1 30 9 265
1977146N12253 1977 40 EP MM AVA 1977-05-26 00:00:00 TS 11.7000 -108.500 30 hurdat_epa main 913 913 O________OO___ hurdat_epa EP011977 11.7000 -108.500 TD 30 -1 11.7000 -108.500 TC 30 11.7000 -108.500 1 30 8 262
1977146N12253 1977 40 EP MM AVA 1977-05-26 03:00:00 TS 11.6475 -108.827 main 941 941 P________PP___ EP011977 11.6551 -108.808 TD 30 -1 11.6551 -108.808 TC 30 11.6325 -108.865 1 32 6 260
1977146N12253 1977 40 EP MM AVA 1977-05-26 06:00:00 TS 11.5905 -109.114 30 hurdat_epa main 961 961 O________OP___ hurdat_epa EP011977 11.6000 -109.100 TD 30 -1 11.6000 -109.100 TC 30 11.5621 -109.157 1 35 5 258
1977146N12253 1977 40 EP MM AVA 1977-05-26 09:00:00 TS 11.5301 -109.371 main 990 990 P________PP___ EP011977 11.5350 -109.365 TD 35 0 11.5350 -109.365 TC 35 11.5107 -109.395 1 37 5 259
1977146N12253 1977 40 EP MM AVA 1977-05-26 12:00:00 TS 11.5000 -109.600 40 hurdat_epa main 1003 1003 O________OO___ hurdat_epa EP011977 11.5000 -109.600 TS 40 0 11.5000 -109.600 TC 40 11.5000 -109.600 2 40 4 268
1977146N12253 1977 40 EP MM AVA 1977-05-26 15:00:00 TS 11.5160 -109.816 main 1014 1011 P________PP___ EP011977 11.5200 -109.815 TS 42 0 11.5200 -109.815 TC 42 11.4999 -109.820 2 41 4 283
1977146N12253 1977 40 EP MM AVA 1977-05-26 18:00:00 TS 11.5900 -110.002 45 hurdat_epa main 1016 1013 O________OP___ hurdat_epa EP011977 11.6000 -110.000 TS 45 0 11.6000 -110.000 TC 45 11.5499 -110.010 2 42 4 297
1977146N12253 1977 40 EP MM AVA 1977-05-26 21:00:00 TS 11.6930 -110.166 main 1019 1007 P________PP___ EP011977 11.6975 -110.165 TS 45 0 11.6975 -110.165 TC 45 11.6750 -110.170 2 43 4 317
1977146N12253 1977 40 EP MM AVA 1977-05-27 00:00:00 TS 11.9000 -110.300 45 hurdat_epa main 1007 986 O________OO___ hurdat_epa EP011977 11.9000 -110.300 TS 45 0 11.9000 -110.300 TC 45 11.9000 -110.300 2 45 6 336
1977146N12253 1977 40 EP MM AVA 1977-05-27 03:00:00 TS 12.2454 -110.414 main 986 948 P________PP___ EP011977 12.2475 -110.415 TS 45 0 12.2475 -110.415 TC 45 12.2372 -110.412 2 43 8 346
1977146N12253 1977 40 EP MM AVA 1977-05-27 06:00:00 TS 12.6945 -110.499 45 hurdat_epa main 948 921 O________OP___ hurdat_epa EP011977 12.7000 -110.500 TS 45 0 12.7000 -110.500 TC 45 12.6725 -110.495 2 42 9 351
1977146N12253 1977 40 EP MM AVA 1977-05-27 09:00:00 TS 13.1763 -110.563 main 913 872 P________PP___ EP011977 13.1775 -110.565 TS 42 0 13.1775 -110.565 TC 42 13.1716 -110.556 2 41 10 354
1977146N12253 1977 40 EP MM AVA 1977-05-27 12:00:00 TS 13.7000 -110.600 40 hurdat_epa main 872 832 O________OO___ hurdat_epa EP011977 13.7000 -110.600 TS 40 0 13.7000 -110.600 TC 40 13.7000 -110.600 2 40 11 358
1977146N12253 1977 40 EP MM AVA 1977-05-27 15:00:00 TS 14.2415 -110.609 main 832 785 P________PP___ EP011977 14.2500 -110.600 TS 40 0 14.2500 -110.600 TC 40 14.2075 -110.644 2 40 11 359
1977146N12253 1977 40 EP MM AVA 1977-05-27 18:00:00 TS 14.7870 -110.615 40 hurdat_epa main 785 747 O________OP___ hurdat_epa EP011977 14.8000 -110.600 TS 40 0 14.8000 -110.600 TC 40 14.7350 -110.673 2 40 11 358
1977146N12253 1977 40 EP MM AVA 1977-05-27 21:00:00 TS 15.3000 -110.652 main 755 719 P________PP___ EP011977 15.3075 -110.642 TS 40 0 15.3075 -110.642 TC 40 15.2700 -110.690 2 40 10 355
1977146N12253 1977 40 EP MM AVA 1977-05-28 00:00:00 TS 15.8000 -110.700 40 hurdat_epa main 719 692 O________OO___ hurdat_epa EP011977 15.8000 -110.700 TS 40 0 15.8000 -110.700 TC 40 15.8000 -110.700 2 40 10 354
1977146N12253 1977 40 EP MM AVA 1977-05-28 03:00:00 TS 16.3160 -110.759 main 694 663 P________PP___ EP011977 16.3000 -110.765 TS 40 0 16.3000 -110.765 TC 40 16.3802 -110.735 2 43 10 355
1977146N12253 1977 40 EP MM AVA 1977-05-28 06:00:00 TS 16.8285 -110.792 40 hurdat_epa main 663 620 O________OP___ hurdat_epa EP011977 16.8000 -110.800 TS 40 0 16.8000 -110.800 TC 40 16.9423 -110.760 2 47 11 0
1977146N12253 1977 40 EP MM AVA 1977-05-28 09:00:00 TS 17.3806 -110.781 main 620 575 P________PP___ EP011977 17.3675 -110.788 TS 47 0 17.3675 -110.788 TC 47 17.4333 -110.754 2 51 10 5
1977146N12253 1977 40 EP MM AVA 1977-05-28 12:00:00 TS 17.8000 -110.700 55 hurdat_epa main 575 561 O________OO___ hurdat_epa EP011977 17.8000 -110.700 TS 55 0 17.8000 -110.700 TC 55 17.8000 -110.700 2 55 6 24
1977146N12253 1977 40 EP MM AVA 1977-05-28 15:00:00 TS 17.9316 -110.521 main 561 556 P________PP___ EP011977 17.9175 -110.515 TS 52 0 17.9175 -110.515 TC 52 17.9877 -110.547 2 51 4 71
1977146N12253 1977 40 EP MM AVA 1977-05-28 18:00:00 TS 17.9301 -110.310 50 hurdat_epa main 556 532 O________OP___ hurdat_epa EP011977 17.9000 -110.300 TS 50 0 17.9000 -110.300 TC 50 18.0503 -110.350 2 47 4 84
1977146N12253 1977 40 EP MM AVA 1977-05-28 21:00:00 TS 17.9735 -110.127 main 532 523 P________PP___ EP011977 17.9575 -110.120 TS 45 0 17.9575 -110.120 TC 45 18.0377 -110.153 2 43 3 77
1977146N12253 1977 40 EP MM AVA 1977-05-29 00:00:00 TS 18.0000 -110.000 40 997 hurdat_epa main 523 523 O________OO___ hurdat_epa EP011977 18.0000 -110.000 TS 40 997 0 18.0000 -110.000 TC 40 997 18.0000 -110.000 2 40 2 77
1977146N12253 1977 40 EP MM AVA 1977-05-29 03:00:00 TS 18.0088 -109.972 main 523 523 P________PP___ EP011977 18.0075 -109.977 TS 40 0 18.0075 -109.977 TC 40 18.0143 -109.950 2 38 0 0
1977146N12253 1977 40 EP MM AVA 1977-05-29 06:00:00 TS 18.0030 -109.989 40 hurdat_epa main 523 523 O________OP___ hurdat_epa EP011977 18.0000 -110.000 TS 40 0 18.0000 -110.000 TC 40 18.0149 -109.947 2 37 0 0
1977146N12253 1977 40 EP MM AVA 1977-05-29 09:00:00 TS 18.0016 -109.994 main 523 523 P________PP___ EP011977 18.0000 -110.000 TS 37 0 18.0000 -110.000 TC 37 18.0081 -109.972 2 36 0 0
1977146N12253 1977 40 EP MM AVA 1977-05-29 12:00:00 TS 18.0000 -110.000 35 hurdat_epa main 523 523 O________OO___ hurdat_epa EP011977 18.0000 -110.000 TS 35 0 18.0000 -110.000 TC 35 18.0000 -110.000 2 35 0 0
1977146N12253 1977 40 EP MM AVA 1977-05-29 15:00:00 TS 18.0000 -109.998 main 523 523 P________PP___ EP011977 18.0000 -110.000 TS 32 -1 18.0000 -110.000 TC 32 18.0000 -109.992 2 33 0 0
1977146N12253 1977 40 EP MM AVA 1977-05-29 18:00:00 TS 18.0000 -109.997 30 1003 hurdat_epa main 523 523 O________OP___ hurdat_epa EP011977 18.0000 -110.000 TD 30 1003 -1 18.0000 -110.000 TC 30 1003 18.0000 -109.985 2 32 0 0
1977146N12253 1977 40 EP MM AVA 1977-05-29 21:00:00 TS 18.0000 -109.997 main 523 523 P________PP___ EP011977 18.0000 -110.000 TD 30 -1 18.0000 -110.000 TC 30 18.0000 -109.986 2 31 0 0
1977146N12253 1977 40 EP MM AVA 1977-05-30 00:00:00 TS 18.0000 -110.000 30 hurdat_epa main 523 523 O________OO___ hurdat_epa EP011977 18.0000 -110.000 TD 30 -1 18.0000 -110.000 TC 30 18.0000 -110.000 1 30 0 0
1977146N12253 1977 40 EP MM AVA 1977-05-30 03:00:00 TS 18.0000 -109.995 main 523 523 P________PP___ EP011977 18.0000 -109.985 TD 30 -1 18.0000 -109.985 TC 30 18.0000 -110.033 1 30 0 0
1977146N12253 1977 40 EP MM AVA 1977-05-30 06:00:00 TS 18.0000 -110.016 30 hurdat_epa main 523 523 O________OP___ hurdat_epa EP011977 18.0000 -110.000 TD 30 -1 18.0000 -110.000 TC 30 18.0000 -110.080 1 30 1 270
1977146N12253 1977 40 EP MM AVA 1977-05-30 09:00:00 TS 18.0000 -110.092 main 532 532 P________PP___ EP011977 18.0000 -110.080 TD 30 -1 18.0000 -110.080 TC 30 18.0000 -110.138 1 30 2 270
1977146N12253 1977 40 EP MM AVA 1977-05-30 12:00:00 TS 18.0000 -110.200 30 hurdat_epa main 542 O________OO___ hurdat_epa EP011977 18.0000 -110.200 TD 30 -1 18.0000 -110.200 TC 30 18.0000 -110.200 1 30 2 270

About IBTrACS Database

This database is a web-friendly format of International Best Track Archive for Climate Stewardship (IBTrACS), a global best track data archive curated by NOAA dating back to 1842.

Updated: 2021-11-26